sensor_id;sensor_type;location;lat;lon;timestamp;P1;durP1;ratioP1;P2;durP2;ratioP2
13218;SDS011;6674;49.152;11.918;2024-03-08T00:00:55;17.37;;;14.53;;
13218;SDS011;6674;49.152;11.918;2024-03-08T00:03:22;17.30;;;14.37;;
13218;SDS011;6674;49.152;11.918;2024-03-08T00:05:50;16.17;;;14.43;;
13218;SDS011;6674;49.152;11.918;2024-03-08T00:08:16;18.13;;;14.43;;
13218;SDS011;6674;49.152;11.918;2024-03-08T00:10:43;20.10;;;15.87;;
13218;SDS011;6674;49.152;11.918;2024-03-08T00:13:09;18.70;;;16.20;;
13218;SDS011;6674;49.152;11.918;2024-03-08T00:15:35;19.17;;;16.50;;
13218;SDS011;6674;49.152;11.918;2024-03-08T00:18:02;17.53;;;14.30;;
13218;SDS011;6674;49.152;11.918;2024-03-08T00:20:28;15.87;;;13.77;;
13218;SDS011;6674;49.152;11.918;2024-03-08T00:22:56;15.27;;;13.07;;
13218;SDS011;6674;49.152;11.918;2024-03-08T00:25:23;16.93;;;14.67;;
13218;SDS011;6674;49.152;11.918;2024-03-08T00:27:49;16.97;;;14.57;;
13218;SDS011;6674;49.152;11.918;2024-03-08T00:30:16;17.63;;;15.17;;
13218;SDS011;6674;49.152;11.918;2024-03-08T00:32:42;17.77;;;14.13;;
13218;SDS011;6674;49.152;11.918;2024-03-08T00:35:09;15.10;;;13.07;;
13218;SDS011;6674;49.152;11.918;2024-03-08T00:37:36;17.93;;;14.60;;
13218;SDS011;6674;49.152;11.918;2024-03-08T00:40:06;16.90;;;14.70;;
13218;SDS011;6674;49.152;11.918;2024-03-08T00:42:34;17.53;;;14.57;;
13218;SDS011;6674;49.152;11.918;2024-03-08T00:45:01;18.67;;;15.53;;
13218;SDS011;6674;49.152;11.918;2024-03-08T00:47:28;17.33;;;14.50;;
13218;SDS011;6674;49.152;11.918;2024-03-08T00:49:54;17.00;;;14.80;;
13218;SDS011;6674;49.152;11.918;2024-03-08T00:52:21;17.87;;;15.20;;
13218;SDS011;6674;49.152;11.918;2024-03-08T00:54:49;16.53;;;14.27;;
13218;SDS011;6674;49.152;11.918;2024-03-08T00:57:17;17.03;;;13.60;;
13218;SDS011;6674;49.152;11.918;2024-03-08T00:59:43;18.50;;;15.23;;
13218;SDS011;6674;49.152;11.918;2024-03-08T01:02:09;16.50;;;13.73;;
13218;SDS011;6674;49.152;11.918;2024-03-08T01:04:36;16.80;;;13.43;;
13218;SDS011;6674;49.152;11.918;2024-03-08T01:07:02;18.70;;;15.03;;
13218;SDS011;6674;49.152;11.918;2024-03-08T01:09:28;17.13;;;14.53;;
13218;SDS011;6674;49.152;11.918;2024-03-08T01:11:55;17.50;;;13.97;;
13218;SDS011;6674;49.152;11.918;2024-03-08T01:14:23;15.87;;;13.50;;
13218;SDS011;6674;49.152;11.918;2024-03-08T01:16:51;18.97;;;14.93;;
13218;SDS011;6674;49.152;11.918;2024-03-08T01:19:17;16.10;;;14.17;;
13218;SDS011;6674;49.152;11.918;2024-03-08T01:21:44;17.20;;;14.30;;
13218;SDS011;6674;49.152;11.918;2024-03-08T01:24:11;16.70;;;14.57;;
13218;SDS011;6674;49.152;11.918;2024-03-08T01:26:37;18.30;;;14.80;;
13218;SDS011;6674;49.152;11.918;2024-03-08T01:29:04;18.53;;;14.80;;
13218;SDS011;6674;49.152;11.918;2024-03-08T01:31:32;16.30;;;13.53;;
13218;SDS011;6674;49.152;11.918;2024-03-08T01:33:58;15.80;;;13.27;;
13218;SDS011;6674;49.152;11.918;2024-03-08T01:36:25;18.83;;;15.67;;
13218;SDS011;6674;49.152;11.918;2024-03-08T01:38:51;17.53;;;14.17;;
13218;SDS011;6674;49.152;11.918;2024-03-08T01:41:18;18.73;;;16.20;;
13218;SDS011;6674;49.152;11.918;2024-03-08T01:43:45;18.03;;;15.07;;
13218;SDS011;6674;49.152;11.918;2024-03-08T01:46:11;17.33;;;14.07;;
13218;SDS011;6674;49.152;11.918;2024-03-08T01:48:41;18.23;;;14.63;;
13218;SDS011;6674;49.152;11.918;2024-03-08T01:51:08;17.87;;;13.83;;
13218;SDS011;6674;49.152;11.918;2024-03-08T01:53:34;17.67;;;13.33;;
13218;SDS011;6674;49.152;11.918;2024-03-08T01:56:02;14.07;;;12.30;;
13218;SDS011;6674;49.152;11.918;2024-03-08T01:58:28;13.47;;;11.77;;
13218;SDS011;6674;49.152;11.918;2024-03-08T02:00:56;14.70;;;12.83;;
13218;SDS011;6674;49.152;11.918;2024-03-08T02:03:22;17.30;;;14.17;;
13218;SDS011;6674;49.152;11.918;2024-03-08T02:05:50;15.00;;;12.67;;
13218;SDS011;6674;49.152;11.918;2024-03-08T02:08:16;14.93;;;12.87;;
13218;SDS011;6674;49.152;11.918;2024-03-08T02:10:44;17.37;;;14.00;;
13218;SDS011;6674;49.152;11.918;2024-03-08T02:13:11;17.27;;;14.83;;
13218;SDS011;6674;49.152;11.918;2024-03-08T02:15:49;15.87;;;13.27;;
13218;SDS011;6674;49.152;11.918;2024-03-08T02:18:15;16.30;;;13.40;;
13218;SDS011;6674;49.152;11.918;2024-03-08T02:20:44;16.27;;;14.10;;
13218;SDS011;6674;49.152;11.918;2024-03-08T02:23:13;17.17;;;15.17;;
13218;SDS011;6674;49.152;11.918;2024-03-08T02:25:40;17.07;;;15.00;;
13218;SDS011;6674;49.152;11.918;2024-03-08T02:28:08;18.07;;;14.87;;
13218;SDS011;6674;49.152;11.918;2024-03-08T02:30:35;19.03;;;15.17;;
13218;SDS011;6674;49.152;11.918;2024-03-08T02:33:01;16.93;;;14.77;;
13218;SDS011;6674;49.152;11.918;2024-03-08T02:35:29;20.03;;;13.70;;
13218;SDS011;6674;49.152;11.918;2024-03-08T02:37:56;20.53;;;16.43;;
13218;SDS011;6674;49.152;11.918;2024-03-08T02:40:23;19.50;;;15.53;;
13218;SDS011;6674;49.152;11.918;2024-03-08T02:42:51;17.63;;;14.83;;
13218;SDS011;6674;49.152;11.918;2024-03-08T02:45:17;18.07;;;14.83;;
13218;SDS011;6674;49.152;11.918;2024-03-08T02:47:44;18.20;;;14.30;;
13218;SDS011;6674;49.152;11.918;2024-03-08T02:50:10;17.97;;;15.17;;
13218;SDS011;6674;49.152;11.918;2024-03-08T02:52:39;17.07;;;14.93;;
13218;SDS011;6674;49.152;11.918;2024-03-08T02:55:08;21.50;;;17.70;;
13218;SDS011;6674;49.152;11.918;2024-03-08T02:57:35;21.10;;;18.07;;
13218;SDS011;6674;49.152;11.918;2024-03-08T03:00:02;18.90;;;15.80;;
13218;SDS011;6674;49.152;11.918;2024-03-08T03:02:28;20.70;;;16.87;;
13218;SDS011;6674;49.152;11.918;2024-03-08T03:04:55;17.97;;;14.93;;
13218;SDS011;6674;49.152;11.918;2024-03-08T03:07:22;18.37;;;14.77;;
13218;SDS011;6674;49.152;11.918;2024-03-08T03:09:48;18.23;;;15.30;;
13218;SDS011;6674;49.152;11.918;2024-03-08T03:12:17;20.57;;;16.90;;
13218;SDS011;6674;49.152;11.918;2024-03-08T03:14:44;19.00;;;16.00;;
13218;SDS011;6674;49.152;11.918;2024-03-08T03:17:10;18.97;;;16.10;;
13218;SDS011;6674;49.152;11.918;2024-03-08T03:19:37;21.30;;;16.97;;
13218;SDS011;6674;49.152;11.918;2024-03-08T03:22:05;21.23;;;16.40;;
13218;SDS011;6674;49.152;11.918;2024-03-08T03:24:34;18.07;;;15.27;;
13218;SDS011;6674;49.152;11.918;2024-03-08T03:27:03;17.87;;;14.97;;
13218;SDS011;6674;49.152;11.918;2024-03-08T03:29:37;17.43;;;14.83;;
13218;SDS011;6674;49.152;11.918;2024-03-08T03:32:03;21.10;;;16.43;;
13218;SDS011;6674;49.152;11.918;2024-03-08T03:34:29;17.30;;;14.77;;
13218;SDS011;6674;49.152;11.918;2024-03-08T03:36:56;18.17;;;15.43;;
13218;SDS011;6674;49.152;11.918;2024-03-08T03:39:22;18.00;;;15.00;;
13218;SDS011;6674;49.152;11.918;2024-03-08T03:41:50;17.57;;;14.80;;
13218;SDS011;6674;49.152;11.918;2024-03-08T03:44:17;16.07;;;14.33;;
13218;SDS011;6674;49.152;11.918;2024-03-08T03:46:45;16.10;;;14.00;;
13218;SDS011;6674;49.152;11.918;2024-03-08T03:49:11;17.73;;;15.40;;
13218;SDS011;6674;49.152;11.918;2024-03-08T03:51:38;18.37;;;16.00;;
13218;SDS011;6674;49.152;11.918;2024-03-08T03:54:04;20.03;;;15.77;;
13218;SDS011;6674;49.152;11.918;2024-03-08T03:56:31;18.73;;;15.57;;
13218;SDS011;6674;49.152;11.918;2024-03-08T03:58:57;20.00;;;16.33;;
13218;SDS011;6674;49.152;11.918;2024-03-08T04:01:23;19.03;;;15.50;;
13218;SDS011;6674;49.152;11.918;2024-03-08T04:03:51;19.00;;;15.70;;
13218;SDS011;6674;49.152;11.918;2024-03-08T04:06:18;18.00;;;15.10;;
13218;SDS011;6674;49.152;11.918;2024-03-08T04:08:45;19.67;;;15.93;;
13218;SDS011;6674;49.152;11.918;2024-03-08T04:11:12;20.47;;;17.13;;
13218;SDS011;6674;49.152;11.918;2024-03-08T04:13:41;19.63;;;15.50;;
13218;SDS011;6674;49.152;11.918;2024-03-08T04:16:07;16.47;;;14.67;;
13218;SDS011;6674;49.152;11.918;2024-03-08T04:18:36;19.43;;;17.20;;
13218;SDS011;6674;49.152;11.918;2024-03-08T04:21:04;21.30;;;16.20;;
13218;SDS011;6674;49.152;11.918;2024-03-08T04:23:32;21.90;;;16.93;;
13218;SDS011;6674;49.152;11.918;2024-03-08T04:26:00;18.07;;;15.37;;
13218;SDS011;6674;49.152;11.918;2024-03-08T04:28:29;20.07;;;16.40;;
13218;SDS011;6674;49.152;11.918;2024-03-08T04:30:56;21.73;;;18.00;;
13218;SDS011;6674;49.152;11.918;2024-03-08T04:33:22;22.10;;;17.80;;
13218;SDS011;6674;49.152;11.918;2024-03-08T04:35:49;20.57;;;17.20;;
13218;SDS011;6674;49.152;11.918;2024-03-08T04:38:17;19.73;;;16.57;;
13218;SDS011;6674;49.152;11.918;2024-03-08T04:40:43;21.73;;;17.30;;
13218;SDS011;6674;49.152;11.918;2024-03-08T04:43:09;20.27;;;16.97;;
13218;SDS011;6674;49.152;11.918;2024-03-08T04:45:36;21.33;;;18.43;;
13218;SDS011;6674;49.152;11.918;2024-03-08T04:48:03;19.53;;;16.47;;
13218;SDS011;6674;49.152;11.918;2024-03-08T04:50:29;19.40;;;16.07;;
13218;SDS011;6674;49.152;11.918;2024-03-08T04:52:55;19.47;;;16.87;;
13218;SDS011;6674;49.152;11.918;2024-03-08T04:55:23;18.53;;;16.03;;
13218;SDS011;6674;49.152;11.918;2024-03-08T04:57:50;18.63;;;15.17;;
13218;SDS011;6674;49.152;11.918;2024-03-08T05:00:16;18.80;;;15.50;;
13218;SDS011;6674;49.152;11.918;2024-03-08T05:02:44;20.47;;;16.80;;
13218;SDS011;6674;49.152;11.918;2024-03-08T05:05:10;21.97;;;16.87;;
13218;SDS011;6674;49.152;11.918;2024-03-08T05:07:37;22.00;;;16.70;;
13218;SDS011;6674;49.152;11.918;2024-03-08T05:10:04;19.90;;;16.40;;
13218;SDS011;6674;49.152;11.918;2024-03-08T05:12:33;20.53;;;17.10;;
13218;SDS011;6674;49.152;11.918;2024-03-08T05:15:00;20.33;;;16.97;;
13218;SDS011;6674;49.152;11.918;2024-03-08T05:17:26;20.47;;;16.70;;
13218;SDS011;6674;49.152;11.918;2024-03-08T05:19:53;18.53;;;15.73;;
13218;SDS011;6674;49.152;11.918;2024-03-08T05:22:19;20.87;;;17.67;;
13218;SDS011;6674;49.152;11.918;2024-03-08T05:24:46;20.90;;;17.13;;
13218;SDS011;6674;49.152;11.918;2024-03-08T05:27:12;24.13;;;18.57;;
13218;SDS011;6674;49.152;11.918;2024-03-08T05:29:40;20.57;;;17.43;;
13218;SDS011;6674;49.152;11.918;2024-03-08T05:32:07;21.23;;;16.93;;
13218;SDS011;6674;49.152;11.918;2024-03-08T05:34:34;19.40;;;16.00;;
13218;SDS011;6674;49.152;11.918;2024-03-08T05:37:01;21.27;;;17.07;;
13218;SDS011;6674;49.152;11.918;2024-03-08T05:39:27;18.83;;;15.77;;
13218;SDS011;6674;49.152;11.918;2024-03-08T05:41:54;19.23;;;15.50;;
13218;SDS011;6674;49.152;11.918;2024-03-08T05:44:21;22.03;;;16.73;;
13218;SDS011;6674;49.152;11.918;2024-03-08T05:46:49;18.23;;;15.37;;
13218;SDS011;6674;49.152;11.918;2024-03-08T05:49:15;20.20;;;15.67;;
13218;SDS011;6674;49.152;11.918;2024-03-08T05:51:42;19.87;;;15.90;;
13218;SDS011;6674;49.152;11.918;2024-03-08T05:54:09;20.90;;;17.33;;
13218;SDS011;6674;49.152;11.918;2024-03-08T05:56:36;21.93;;;16.33;;
13218;SDS011;6674;49.152;11.918;2024-03-08T05:59:02;21.60;;;16.77;;
13218;SDS011;6674;49.152;11.918;2024-03-08T06:01:29;22.33;;;17.33;;
13218;SDS011;6674;49.152;11.918;2024-03-08T06:03:57;19.67;;;16.30;;
13218;SDS011;6674;49.152;11.918;2024-03-08T06:06:24;21.30;;;17.40;;
13218;SDS011;6674;49.152;11.918;2024-03-08T06:08:50;18.37;;;15.27;;
13218;SDS011;6674;49.152;11.918;2024-03-08T06:11:17;22.20;;;17.33;;
13218;SDS011;6674;49.152;11.918;2024-03-08T06:13:44;20.63;;;17.33;;
13218;SDS011;6674;49.152;11.918;2024-03-08T06:16:10;26.73;;;21.63;;
13218;SDS011;6674;49.152;11.918;2024-03-08T06:18:37;32.53;;;24.67;;
13218;SDS011;6674;49.152;11.918;2024-03-08T06:21:05;57.73;;;41.23;;
13218;SDS011;6674;49.152;11.918;2024-03-08T06:23:32;37.53;;;27.33;;
13218;SDS011;6674;49.152;11.918;2024-03-08T06:25:58;25.23;;;20.47;;
13218;SDS011;6674;49.152;11.918;2024-03-08T06:28:25;48.23;;;35.33;;
13218;SDS011;6674;49.152;11.918;2024-03-08T06:30:51;37.23;;;28.47;;
13218;SDS011;6674;49.152;11.918;2024-03-08T06:33:19;32.43;;;24.80;;
13218;SDS011;6674;49.152;11.918;2024-03-08T06:35:45;25.40;;;20.07;;
13218;SDS011;6674;49.152;11.918;2024-03-08T06:38:13;21.50;;;18.07;;
13218;SDS011;6674;49.152;11.918;2024-03-08T06:40:42;24.13;;;19.73;;
13218;SDS011;6674;49.152;11.918;2024-03-08T06:43:08;22.90;;;18.47;;
13218;SDS011;6674;49.152;11.918;2024-03-08T06:45:39;23.10;;;19.00;;
13218;SDS011;6674;49.152;11.918;2024-03-08T06:48:06;23.10;;;18.73;;
13218;SDS011;6674;49.152;11.918;2024-03-08T06:50:34;21.53;;;17.33;;
13218;SDS011;6674;49.152;11.918;2024-03-08T06:53:01;25.30;;;20.83;;
13218;SDS011;6674;49.152;11.918;2024-03-08T06:55:29;20.40;;;16.67;;
13218;SDS011;6674;49.152;11.918;2024-03-08T06:57:56;27.57;;;22.23;;
13218;SDS011;6674;49.152;11.918;2024-03-08T07:00:23;24.27;;;19.83;;
13218;SDS011;6674;49.152;11.918;2024-03-08T07:02:52;21.37;;;18.33;;
13218;SDS011;6674;49.152;11.918;2024-03-08T07:05:19;21.33;;;17.77;;
13218;SDS011;6674;49.152;11.918;2024-03-08T07:07:46;24.37;;;18.87;;
13218;SDS011;6674;49.152;11.918;2024-03-08T07:10:13;26.83;;;21.63;;
13218;SDS011;6674;49.152;11.918;2024-03-08T07:12:42;30.97;;;24.23;;
13218;SDS011;6674;49.152;11.918;2024-03-08T07:15:08;24.80;;;19.47;;
13218;SDS011;6674;49.152;11.918;2024-03-08T07:17:38;23.70;;;18.20;;
13218;SDS011;6674;49.152;11.918;2024-03-08T07:20:05;27.13;;;20.10;;
13218;SDS011;6674;49.152;11.918;2024-03-08T07:22:36;22.77;;;17.83;;
13218;SDS011;6674;49.152;11.918;2024-03-08T07:25:04;24.30;;;18.47;;
13218;SDS011;6674;49.152;11.918;2024-03-08T07:27:46;22.57;;;18.23;;
13218;SDS011;6674;49.152;11.918;2024-03-08T07:30:12;21.83;;;18.37;;
13218;SDS011;6674;49.152;11.918;2024-03-08T07:32:59;28.80;;;21.83;;
13218;SDS011;6674;49.152;11.918;2024-03-08T07:35:27;21.57;;;17.63;;
13218;SDS011;6674;49.152;11.918;2024-03-08T07:37:53;23.43;;;19.17;;
13218;SDS011;6674;49.152;11.918;2024-03-08T07:40:20;22.00;;;17.30;;
13218;SDS011;6674;49.152;11.918;2024-03-08T07:42:49;24.90;;;19.47;;
13218;SDS011;6674;49.152;11.918;2024-03-08T07:45:16;27.13;;;20.90;;
13218;SDS011;6674;49.152;11.918;2024-03-08T07:47:42;26.40;;;19.03;;
13218;SDS011;6674;49.152;11.918;2024-03-08T07:50:09;24.30;;;19.83;;
13218;SDS011;6674;49.152;11.918;2024-03-08T07:52:35;26.17;;;19.97;;
13218;SDS011;6674;49.152;11.918;2024-03-08T07:55:02;22.30;;;17.80;;
13218;SDS011;6674;49.152;11.918;2024-03-08T07:57:29;23.20;;;18.50;;
13218;SDS011;6674;49.152;11.918;2024-03-08T07:59:57;22.77;;;19.13;;
13218;SDS011;6674;49.152;11.918;2024-03-08T08:02:23;21.37;;;17.80;;
13218;SDS011;6674;49.152;11.918;2024-03-08T08:04:49;23.40;;;18.17;;
13218;SDS011;6674;49.152;11.918;2024-03-08T08:07:16;24.70;;;18.90;;
13218;SDS011;6674;49.152;11.918;2024-03-08T08:09:42;25.27;;;18.67;;
13218;SDS011;6674;49.152;11.918;2024-03-08T08:12:09;24.27;;;18.43;;
13218;SDS011;6674;49.152;11.918;2024-03-08T08:14:37;25.03;;;18.63;;
13218;SDS011;6674;49.152;11.918;2024-03-08T08:17:05;22.27;;;17.77;;
13218;SDS011;6674;49.152;11.918;2024-03-08T08:19:33;24.40;;;19.53;;
13218;SDS011;6674;49.152;11.918;2024-03-08T08:22:00;25.37;;;19.77;;
13218;SDS011;6674;49.152;11.918;2024-03-08T08:24:27;23.63;;;18.63;;
13218;SDS011;6674;49.152;11.918;2024-03-08T08:26:54;22.00;;;17.93;;
13218;SDS011;6674;49.152;11.918;2024-03-08T08:29:21;26.10;;;19.30;;
13218;SDS011;6674;49.152;11.918;2024-03-08T08:31:48;35.53;;;25.90;;
13218;SDS011;6674;49.152;11.918;2024-03-08T08:34:16;24.40;;;19.20;;
13218;SDS011;6674;49.152;11.918;2024-03-08T08:36:44;22.10;;;18.27;;
13218;SDS011;6674;49.152;11.918;2024-03-08T08:39:10;23.13;;;19.00;;
13218;SDS011;6674;49.152;11.918;2024-03-08T08:41:38;22.23;;;17.37;;
13218;SDS011;6674;49.152;11.918;2024-03-08T08:44:06;23.70;;;19.23;;
13218;SDS011;6674;49.152;11.918;2024-03-08T08:46:35;21.77;;;16.63;;
13218;SDS011;6674;49.152;11.918;2024-03-08T08:49:02;20.27;;;17.50;;
13218;SDS011;6674;49.152;11.918;2024-03-08T08:51:30;20.93;;;16.53;;
13218;SDS011;6674;49.152;11.918;2024-03-08T08:53:59;19.60;;;16.23;;
13218;SDS011;6674;49.152;11.918;2024-03-08T08:56:25;21.03;;;16.57;;
13218;SDS011;6674;49.152;11.918;2024-03-08T08:58:53;18.23;;;15.27;;
13218;SDS011;6674;49.152;11.918;2024-03-08T09:01:20;17.73;;;14.80;;
13218;SDS011;6674;49.152;11.918;2024-03-08T09:03:46;17.00;;;14.63;;
13218;SDS011;6674;49.152;11.918;2024-03-08T09:06:13;16.67;;;14.53;;
13218;SDS011;6674;49.152;11.918;2024-03-08T09:08:40;17.70;;;15.37;;
13218;SDS011;6674;49.152;11.918;2024-03-08T09:11:07;17.73;;;14.30;;
13218;SDS011;6674;49.152;11.918;2024-03-08T09:13:33;16.70;;;13.57;;
13218;SDS011;6674;49.152;11.918;2024-03-08T09:15:59;15.57;;;13.07;;
13218;SDS011;6674;49.152;11.918;2024-03-08T09:18:26;14.80;;;12.50;;
13218;SDS011;6674;49.152;11.918;2024-03-08T09:20:52;13.70;;;11.90;;
13218;SDS011;6674;49.152;11.918;2024-03-08T09:23:19;15.53;;;13.03;;
13218;SDS011;6674;49.152;11.918;2024-03-08T09:25:47;13.63;;;11.70;;
13218;SDS011;6674;49.152;11.918;2024-03-08T09:28:15;13.57;;;11.90;;
13218;SDS011;6674;49.152;11.918;2024-03-08T09:30:41;12.43;;;11.13;;
13218;SDS011;6674;49.152;11.918;2024-03-08T09:33:08;14.17;;;11.23;;
13218;SDS011;6674;49.152;11.918;2024-03-08T09:35:34;12.27;;;10.97;;
13218;SDS011;6674;49.152;11.918;2024-03-08T09:38:01;12.53;;;10.33;;
13218;SDS011;6674;49.152;11.918;2024-03-08T09:40:28;12.93;;;11.23;;
13218;SDS011;6674;49.152;11.918;2024-03-08T09:42:56;12.27;;;10.93;;
13218;SDS011;6674;49.152;11.918;2024-03-08T09:45:22;12.37;;;10.67;;
13218;SDS011;6674;49.152;11.918;2024-03-08T09:47:50;11.57;;;10.00;;
13218;SDS011;6674;49.152;11.918;2024-03-08T09:50:18;11.67;;;10.00;;
13218;SDS011;6674;49.152;11.918;2024-03-08T09:52:46;10.73;;;9.57;;
13218;SDS011;6674;49.152;11.918;2024-03-08T09:55:12;11.50;;;9.87;;
13218;SDS011;6674;49.152;11.918;2024-03-08T09:57:40;10.83;;;9.30;;
13218;SDS011;6674;49.152;11.918;2024-03-08T10:00:09;10.20;;;8.63;;
13218;SDS011;6674;49.152;11.918;2024-03-08T10:02:44;11.00;;;9.90;;
13218;SDS011;6674;49.152;11.918;2024-03-08T10:05:12;10.30;;;9.23;;
13218;SDS011;6674;49.152;11.918;2024-03-08T10:07:39;10.40;;;9.30;;
13218;SDS011;6674;49.152;11.918;2024-03-08T10:10:06;10.77;;;9.20;;
13218;SDS011;6674;49.152;11.918;2024-03-08T10:12:33;10.03;;;8.93;;
13218;SDS011;6674;49.152;11.918;2024-03-08T10:15:00;9.53;;;8.57;;
13218;SDS011;6674;49.152;11.918;2024-03-08T10:17:28;9.77;;;8.77;;
13218;SDS011;6674;49.152;11.918;2024-03-08T10:19:57;10.43;;;8.97;;
13218;SDS011;6674;49.152;11.918;2024-03-08T10:22:25;11.33;;;9.87;;
13218;SDS011;6674;49.152;11.918;2024-03-08T10:24:51;10.80;;;8.73;;
13218;SDS011;6674;49.152;11.918;2024-03-08T10:27:18;10.30;;;9.23;;
13218;SDS011;6674;49.152;11.918;2024-03-08T10:29:46;9.00;;;8.10;;
13218;SDS011;6674;49.152;11.918;2024-03-08T10:32:13;11.13;;;9.97;;
13218;SDS011;6674;49.152;11.918;2024-03-08T10:34:40;10.57;;;9.47;;
13218;SDS011;6674;49.152;11.918;2024-03-08T10:37:08;11.30;;;10.20;;
13218;SDS011;6674;49.152;11.918;2024-03-08T10:39:39;10.87;;;9.57;;
13218;SDS011;6674;49.152;11.918;2024-03-08T10:42:09;11.07;;;9.90;;
13218;SDS011;6674;49.152;11.918;2024-03-08T10:44:40;10.73;;;9.50;;
13218;SDS011;6674;49.152;11.918;2024-03-08T10:47:11;11.10;;;10.00;;
13218;SDS011;6674;49.152;11.918;2024-03-08T10:49:44;12.93;;;11.13;;
13218;SDS011;6674;49.152;11.918;2024-03-08T10:52:14;12.00;;;10.17;;
13218;SDS011;6674;49.152;11.918;2024-03-08T10:54:42;11.87;;;10.33;;
13218;SDS011;6674;49.152;11.918;2024-03-08T10:57:09;12.33;;;10.90;;
13218;SDS011;6674;49.152;11.918;2024-03-08T10:59:39;12.80;;;10.37;;
13218;SDS011;6674;49.152;11.918;2024-03-08T11:02:05;10.90;;;9.77;;
13218;SDS011;6674;49.152;11.918;2024-03-08T11:04:32;11.30;;;10.10;;
13218;SDS011;6674;49.152;11.918;2024-03-08T11:07:01;11.23;;;9.83;;
13218;SDS011;6674;49.152;11.918;2024-03-08T11:09:31;10.77;;;9.63;;
13218;SDS011;6674;49.152;11.918;2024-03-08T11:14:43;12.33;;;10.83;;
13218;SDS011;6674;49.152;11.918;2024-03-08T11:17:12;11.17;;;10.07;;
13218;SDS011;6674;49.152;11.918;2024-03-08T11:19:45;11.67;;;9.93;;
13218;SDS011;6674;49.152;11.918;2024-03-08T11:22:19;11.47;;;10.27;;
13218;SDS011;6674;49.152;11.918;2024-03-08T11:24:47;11.27;;;10.17;;
13218;SDS011;6674;49.152;11.918;2024-03-08T11:27:13;11.60;;;10.40;;
13218;SDS011;6674;49.152;11.918;2024-03-08T11:29:39;11.47;;;10.27;;
13218;SDS011;6674;49.152;11.918;2024-03-08T11:32:06;10.90;;;9.80;;
13218;SDS011;6674;49.152;11.918;2024-03-08T11:34:33;12.07;;;10.50;;
13218;SDS011;6674;49.152;11.918;2024-03-08T11:36:59;10.20;;;9.20;;
13218;SDS011;6674;49.152;11.918;2024-03-08T11:39:27;10.17;;;9.10;;
13218;SDS011;6674;49.152;11.918;2024-03-08T11:41:53;11.30;;;10.10;;
13218;SDS011;6674;49.152;11.918;2024-03-08T11:44:20;11.00;;;9.90;;
13218;SDS011;6674;49.152;11.918;2024-03-08T11:46:47;9.47;;;8.47;;
13218;SDS011;6674;49.152;11.918;2024-03-08T11:49:13;11.23;;;9.90;;
13218;SDS011;6674;49.152;11.918;2024-03-08T11:51:41;10.67;;;9.57;;
13218;SDS011;6674;49.152;11.918;2024-03-08T11:54:10;11.00;;;9.90;;
13218;SDS011;6674;49.152;11.918;2024-03-08T11:56:38;9.77;;;8.77;;
13218;SDS011;6674;49.152;11.918;2024-03-08T11:59:06;10.83;;;9.73;;
13218;SDS011;6674;49.152;11.918;2024-03-08T12:01:37;11.33;;;10.13;;
13218;SDS011;6674;49.152;11.918;2024-03-08T12:04:04;10.47;;;9.47;;
13218;SDS011;6674;49.152;11.918;2024-03-08T12:06:36;11.67;;;10.47;;
13218;SDS011;6674;49.152;11.918;2024-03-08T12:09:02;10.43;;;9.33;;
13218;SDS011;6674;49.152;11.918;2024-03-08T12:11:29;10.67;;;9.57;;
13218;SDS011;6674;49.152;11.918;2024-03-08T12:13:57;10.50;;;9.23;;
13218;SDS011;6674;49.152;11.918;2024-03-08T12:16:24;11.87;;;10.67;;
13218;SDS011;6674;49.152;11.918;2024-03-08T12:18:51;11.30;;;10.20;;
13218;SDS011;6674;49.152;11.918;2024-03-08T12:21:18;11.50;;;10.40;;
13218;SDS011;6674;49.152;11.918;2024-03-08T12:23:46;11.27;;;10.07;;
13218;SDS011;6674;49.152;11.918;2024-03-08T12:26:15;11.27;;;10.17;;
13218;SDS011;6674;49.152;11.918;2024-03-08T12:28:42;11.07;;;9.97;;
13218;SDS011;6674;49.152;11.918;2024-03-08T12:31:11;10.67;;;9.43;;
13218;SDS011;6674;49.152;11.918;2024-03-08T12:33:46;10.13;;;9.13;;
13218;SDS011;6674;49.152;11.918;2024-03-08T12:36:14;10.73;;;9.63;;
13218;SDS011;6674;49.152;11.918;2024-03-08T12:38:43;11.10;;;10.10;;
13218;SDS011;6674;49.152;11.918;2024-03-08T12:41:13;13.60;;;10.70;;
13218;SDS011;6674;49.152;11.918;2024-03-08T12:43:39;10.73;;;9.63;;
13218;SDS011;6674;49.152;11.918;2024-03-08T12:46:06;11.47;;;10.37;;
13218;SDS011;6674;49.152;11.918;2024-03-08T12:48:36;11.13;;;10.03;;
13218;SDS011;6674;49.152;11.918;2024-03-08T12:51:05;12.77;;;10.17;;
13218;SDS011;6674;49.152;11.918;2024-03-08T12:53:32;10.43;;;9.43;;
13218;SDS011;6674;49.152;11.918;2024-03-08T12:55:58;10.60;;;9.53;;
13218;SDS011;6674;49.152;11.918;2024-03-08T12:58:25;10.50;;;9.50;;
13218;SDS011;6674;49.152;11.918;2024-03-08T13:00:52;11.03;;;9.93;;
13218;SDS011;6674;49.152;11.918;2024-03-08T13:03:18;11.17;;;10.07;;
13218;SDS011;6674;49.152;11.918;2024-03-08T13:05:46;11.33;;;10.27;;
13218;SDS011;6674;49.152;11.918;2024-03-08T13:08:13;11.03;;;9.80;;
13218;SDS011;6674;49.152;11.918;2024-03-08T13:10:41;9.87;;;8.87;;
13218;SDS011;6674;49.152;11.918;2024-03-08T13:13:08;10.13;;;9.10;;
13218;SDS011;6674;49.152;11.918;2024-03-08T13:15:36;9.10;;;8.20;;
13218;SDS011;6674;49.152;11.918;2024-03-08T13:18:02;9.27;;;8.37;;
13218;SDS011;6674;49.152;11.918;2024-03-08T13:20:31;9.10;;;8.20;;
13218;SDS011;6674;49.152;11.918;2024-03-08T13:23:00;10.10;;;9.10;;
13218;SDS011;6674;49.152;11.918;2024-03-08T13:25:26;9.53;;;8.63;;
13218;SDS011;6674;49.152;11.918;2024-03-08T13:27:53;10.30;;;9.20;;
13218;SDS011;6674;49.152;11.918;2024-03-08T13:30:22;10.57;;;9.50;;
13218;SDS011;6674;49.152;11.918;2024-03-08T13:32:51;9.90;;;8.90;;
13218;SDS011;6674;49.152;11.918;2024-03-08T13:35:18;8.83;;;8.03;;
13218;SDS011;6674;49.152;11.918;2024-03-08T13:37:49;9.20;;;8.27;;
13218;SDS011;6674;49.152;11.918;2024-03-08T13:40:17;8.60;;;7.70;;
13218;SDS011;6674;49.152;11.918;2024-03-08T13:42:45;9.67;;;8.77;;
13218;SDS011;6674;49.152;11.918;2024-03-08T13:45:11;9.97;;;8.97;;
13218;SDS011;6674;49.152;11.918;2024-03-08T13:47:39;6.50;;;5.90;;
13218;SDS011;6674;49.152;11.918;2024-03-08T13:50:06;6.60;;;6.00;;
13218;SDS011;6674;49.152;11.918;2024-03-08T13:52:37;6.63;;;6.03;;
13218;SDS011;6674;49.152;11.918;2024-03-08T13:55:03;6.40;;;5.80;;
13218;SDS011;6674;49.152;11.918;2024-03-08T13:57:31;6.73;;;6.13;;
13218;SDS011;6674;49.152;11.918;2024-03-08T13:59:58;6.40;;;5.80;;
13218;SDS011;6674;49.152;11.918;2024-03-08T14:02:25;6.27;;;5.67;;
13218;SDS011;6674;49.152;11.918;2024-03-08T14:04:53;5.73;;;5.23;;
13218;SDS011;6674;49.152;11.918;2024-03-08T14:07:19;6.87;;;6.27;;
13218;SDS011;6674;49.152;11.918;2024-03-08T14:09:46;6.33;;;5.73;;
13218;SDS011;6674;49.152;11.918;2024-03-08T14:12:12;7.33;;;6.63;;
13218;SDS011;6674;49.152;11.918;2024-03-08T14:14:41;6.57;;;5.97;;
13218;SDS011;6674;49.152;11.918;2024-03-08T14:17:09;6.73;;;6.13;;
13218;SDS011;6674;49.152;11.918;2024-03-08T14:19:36;6.80;;;6.10;;
13218;SDS011;6674;49.152;11.918;2024-03-08T14:22:04;6.50;;;5.60;;
13218;SDS011;6674;49.152;11.918;2024-03-08T14:24:31;6.67;;;5.93;;
13218;SDS011;6674;49.152;11.918;2024-03-08T14:27:00;7.17;;;6.47;;
13218;SDS011;6674;49.152;11.918;2024-03-08T14:29:28;6.33;;;5.73;;